sensor_id;sensor_type;location;lat;lon;timestamp;pressure;altitude;pressure_sealevel;temperature;humidity
15489;BME280;7846;48.830;9.116;2022-12-18T00:01:04;98970.09;;;-8.98;81.44
15489;BME280;7846;48.830;9.116;2022-12-18T00:03:37;98963.91;;;-8.62;81.00
15489;BME280;7846;48.830;9.116;2022-12-18T00:06:03;98964.81;;;-8.67;80.51
15489;BME280;7846;48.830;9.116;2022-12-18T00:08:29;98970.78;;;-8.70;80.57
15489;BME280;7846;48.830;9.116;2022-12-18T00:10:54;98968.22;;;-8.71;80.36
15489;BME280;7846;48.830;9.116;2022-12-18T00:13:21;98976.72;;;-8.69;80.07
15489;BME280;7846;48.830;9.116;2022-12-18T00:15:46;98974.19;;;-8.72;79.92
15489;BME280;7846;48.830;9.116;2022-12-18T00:18:15;98975.88;;;-8.71;79.71
15489;BME280;7846;48.830;9.116;2022-12-18T00:20:41;98964.91;;;-8.81;79.82
15489;BME280;7846;48.830;9.116;2022-12-18T00:23:07;98958.97;;;-8.83;79.76
15489;BME280;7846;48.830;9.116;2022-12-18T00:25:33;98961.53;;;-8.88;80.35
15489;BME280;7846;48.830;9.116;2022-12-18T00:28:00;98960.69;;;-8.82;80.17
15489;BME280;7846;48.830;9.116;2022-12-18T00:30:25;98964.06;;;-8.82;80.74
15489;BME280;7846;48.830;9.116;2022-12-18T00:32:52;98968.34;;;-8.88;80.87
15489;BME280;7846;48.830;9.116;2022-12-18T00:35:18;98970.88;;;-8.82;80.42
15489;BME280;7846;48.830;9.116;2022-12-18T00:37:43;98976.81;;;-8.80;80.15
15489;BME280;7846;48.830;9.116;2022-12-18T00:40:10;98980.16;;;-8.73;80.34
15489;BME280;7846;48.830;9.116;2022-12-18T00:42:35;98977.63;;;-8.77;80.39
15489;BME280;7846;48.830;9.116;2022-12-18T00:45:19;98980.22;;;-8.83;80.57
15489;BME280;7846;48.830;9.116;2022-12-18T00:47:45;98975.13;;;-8.81;80.95
15489;BME280;7846;48.830;9.116;2022-12-18T00:50:10;98977.66;;;-8.78;81.07
15489;BME280;7846;48.830;9.116;2022-12-18T00:52:35;98972.56;;;-8.84;80.96
15489;BME280;7846;48.830;9.116;2022-12-18T00:55:01;98970.06;;;-8.86;81.25
15489;BME280;7846;48.830;9.116;2022-12-18T00:57:26;98975.09;;;-8.83;81.32
15489;BME280;7846;48.830;9.116;2022-12-18T00:59:55;98969.19;;;-8.88;80.52
15489;BME280;7846;48.830;9.116;2022-12-18T01:02:22;98970.84;;;-8.79;80.82
15489;BME280;7846;48.830;9.116;2022-12-18T01:04:47;98965.75;;;-8.81;80.29
15489;BME280;7846;48.830;9.116;2022-12-18T01:07:14;98967.44;;;-8.78;81.20
15489;BME280;7846;48.830;9.116;2022-12-18T01:09:40;98965.78;;;-8.82;80.24
15489;BME280;7846;48.830;9.116;2022-12-18T01:12:09;98969.16;;;-8.83;79.74
15489;BME280;7846;48.830;9.116;2022-12-18T01:14:36;98971.81;;;-8.97;79.93
15489;BME280;7846;48.830;9.116;2022-12-18T01:17:03;98968.38;;;-8.93;80.28
15489;BME280;7846;48.830;9.116;2022-12-18T01:19:29;98964.97;;;-8.89;79.62
15489;BME280;7846;48.830;9.116;2022-12-18T01:21:54;98964.91;;;-8.78;79.97
15489;BME280;7846;48.830;9.116;2022-12-18T01:24:21;98979.31;;;-8.74;80.01
15489;BME280;7846;48.830;9.116;2022-12-18T01:26:47;98985.28;;;-8.77;79.61
15489;BME280;7846;48.830;9.116;2022-12-18T01:29:12;98981.91;;;-8.80;79.21
15489;BME280;7846;48.830;9.116;2022-12-18T01:31:40;98981.03;;;-8.79;78.61
15489;BME280;7846;48.830;9.116;2022-12-18T01:34:05;98972.53;;;-8.80;78.66
15489;BME280;7846;48.830;9.116;2022-12-18T01:36:33;98971.66;;;-8.74;79.14
15489;BME280;7846;48.830;9.116;2022-12-18T01:39:00;98978.47;;;-8.73;79.63
15489;BME280;7846;48.830;9.116;2022-12-18T01:41:28;98979.31;;;-8.71;80.08
15489;BME280;7846;48.830;9.116;2022-12-18T01:47:21;98982.69;;;-8.67;81.67
15489;BME280;7846;48.830;9.116;2022-12-18T01:49:48;98986.91;;;-8.68;81.02
15489;BME280;7846;48.830;9.116;2022-12-18T01:52:14;98983.53;;;-8.67;81.67
15489;BME280;7846;48.830;9.116;2022-12-18T01:54:41;98985.19;;;-8.60;81.68
15489;BME280;7846;48.830;9.116;2022-12-18T01:57:06;98980.03;;;-8.54;81.61
15489;BME280;7846;48.830;9.116;2022-12-18T01:59:33;98979.16;;;-8.48;81.72
15489;BME280;7846;48.830;9.116;2022-12-18T02:01:59;98976.56;;;-8.43;81.22
15489;BME280;7846;48.830;9.116;2022-12-18T02:04:27;98962.81;;;-8.35;81.77
15489;BME280;7846;48.830;9.116;2022-12-18T02:07:18;98971.25;;;-8.22;81.70
15489;BME280;7846;48.830;9.116;2022-12-18T02:10:27;98973.69;;;-8.13;81.89
15489;BME280;7846;48.830;9.116;2022-12-18T02:13:20;98972.75;;;-8.01;81.84
15489;BME280;7846;48.830;9.116;2022-12-18T02:19:27;98977.66;;;-7.80;82.32
15489;BME280;7846;48.830;9.116;2022-12-18T02:25:13;98980.78;;;-7.55;82.89
15489;BME280;7846;48.830;9.116;2022-12-18T02:27:45;98979.91;;;-7.49;82.47
15489;BME280;7846;48.830;9.116;2022-12-18T02:30:12;98982.50;;;-7.55;81.53
15489;BME280;7846;48.830;9.116;2022-12-18T02:32:44;98983.25;;;-7.45;81.77
15489;BME280;7846;48.830;9.116;2022-12-18T02:35:15;98990.09;;;-7.47;81.62
15489;BME280;7846;48.830;9.116;2022-12-18T02:37:43;98989.25;;;-7.48;82.03
15489;BME280;7846;48.830;9.116;2022-12-18T02:40:11;98981.59;;;-7.48;81.95
15489;BME280;7846;48.830;9.116;2022-12-18T02:42:38;98983.31;;;-7.51;81.51
15489;BME280;7846;48.830;9.116;2022-12-18T02:45:04;98993.59;;;-7.58;82.12
15489;BME280;7846;48.830;9.116;2022-12-18T02:47:32;98990.97;;;-7.50;81.73
15489;BME280;7846;48.830;9.116;2022-12-18T02:50:19;98991.81;;;-7.49;81.56
15489;BME280;7846;48.830;9.116;2022-12-18T02:52:59;98996.91;;;-7.48;81.30
15489;BME280;7846;48.830;9.116;2022-12-18T03:00:41;98993.59;;;-7.56;81.08
15489;BME280;7846;48.830;9.116;2022-12-18T03:05:59;98982.53;;;-7.58;81.64
15489;BME280;7846;48.830;9.116;2022-12-18T03:08:36;98991.03;;;-7.55;81.25
15489;BME280;7846;48.830;9.116;2022-12-18T03:11:05;98998.66;;;-7.53;81.16
15489;BME280;7846;48.830;9.116;2022-12-18T03:13:36;99003.84;;;-7.58;81.79
15489;BME280;7846;48.830;9.116;2022-12-18T03:16:06;99011.47;;;-7.55;82.21
15489;BME280;7846;48.830;9.116;2022-12-18T03:18:38;99013.16;;;-7.53;81.39
15489;BME280;7846;48.830;9.116;2022-12-18T03:21:07;99014.91;;;-7.60;81.87
15489;BME280;7846;48.830;9.116;2022-12-18T03:23:40;99005.50;;;-7.55;81.60
15489;BME280;7846;48.830;9.116;2022-12-18T03:26:10;99002.16;;;-7.59;81.20
15489;BME280;7846;48.830;9.116;2022-12-18T03:28:43;99005.63;;;-7.66;81.73
15489;BME280;7846;48.830;9.116;2022-12-18T03:31:13;99011.59;;;-7.67;81.59
15489;BME280;7846;48.830;9.116;2022-12-18T03:33:56;99017.56;;;-7.66;81.30
15489;BME280;7846;48.830;9.116;2022-12-18T03:36:23;99019.31;;;-7.73;81.13
15489;BME280;7846;48.830;9.116;2022-12-18T03:38:48;99014.28;;;-7.81;81.47
15489;BME280;7846;48.830;9.116;2022-12-18T03:44:00;99010.88;;;-7.78;81.21
15489;BME280;7846;48.830;9.116;2022-12-18T03:46:46;99010.03;;;-7.82;81.80
15489;BME280;7846;48.830;9.116;2022-12-18T03:49:25;99007.50;;;-7.83;81.61
15489;BME280;7846;48.830;9.116;2022-12-18T03:51:57;99019.41;;;-7.84;81.60
15489;BME280;7846;48.830;9.116;2022-12-18T03:54:26;99016.06;;;-7.90;82.70
15489;BME280;7846;48.830;9.116;2022-12-18T03:57:06;99016.91;;;-7.88;82.98
15489;BME280;7846;48.830;9.116;2022-12-18T03:59:35;99010.13;;;-7.94;83.03
15489;BME280;7846;48.830;9.116;2022-12-18T04:02:03;99008.47;;;-7.93;82.87
15489;BME280;7846;48.830;9.116;2022-12-18T04:04:33;99009.28;;;-7.94;82.77
15489;BME280;7846;48.830;9.116;2022-12-18T04:06:59;99010.19;;;-7.98;82.20
15489;BME280;7846;48.830;9.116;2022-12-18T04:09:27;99008.47;;;-7.98;82.40
15489;BME280;7846;48.830;9.116;2022-12-18T04:11:52;99005.94;;;-7.99;83.17
15489;BME280;7846;48.830;9.116;2022-12-18T04:14:19;99001.72;;;-8.00;82.37
15489;BME280;7846;48.830;9.116;2022-12-18T04:16:46;99011.94;;;-8.00;81.86
15489;BME280;7846;48.830;9.116;2022-12-18T04:19:11;99005.13;;;-8.03;82.35
15489;BME280;7846;48.830;9.116;2022-12-18T04:21:38;99009.41;;;-8.04;81.80
15489;BME280;7846;48.830;9.116;2022-12-18T04:24:03;99009.41;;;-8.04;82.33
15489;BME280;7846;48.830;9.116;2022-12-18T04:26:28;99004.28;;;-8.04;81.91
15489;BME280;7846;48.830;9.116;2022-12-18T04:28:55;99016.22;;;-8.04;82.20
15489;BME280;7846;48.830;9.116;2022-12-18T04:31:22;99018.72;;;-8.01;82.54
15489;BME280;7846;48.830;9.116;2022-12-18T04:33:47;99028.88;;;-7.95;81.84
15489;BME280;7846;48.830;9.116;2022-12-18T04:36:13;99022.91;;;-7.89;82.14
15489;BME280;7846;48.830;9.116;2022-12-18T04:38:38;99028.88;;;-7.92;81.78
15489;BME280;7846;48.830;9.116;2022-12-18T04:41:04;99020.31;;;-7.88;82.62
15489;BME280;7846;48.830;9.116;2022-12-18T04:43:29;99012.56;;;-7.80;83.04
15489;BME280;7846;48.830;9.116;2022-12-18T04:46:05;99010.81;;;-7.75;82.74
15489;BME280;7846;48.830;9.116;2022-12-18T04:48:32;99005.69;;;-7.75;82.39
15489;BME280;7846;48.830;9.116;2022-12-18T04:50:57;98998.06;;;-7.76;82.39
15489;BME280;7846;48.830;9.116;2022-12-18T04:53:24;99009.16;;;-7.77;82.48
15489;BME280;7846;48.830;9.116;2022-12-18T04:55:50;98997.19;;;-7.75;82.58
15489;BME280;7846;48.830;9.116;2022-12-18T04:58:17;99000.63;;;-7.76;82.62
15489;BME280;7846;48.830;9.116;2022-12-18T05:00:42;99004.03;;;-7.77;82.55
15489;BME280;7846;48.830;9.116;2022-12-18T05:03:08;99006.59;;;-7.79;82.68
15489;BME280;7846;48.830;9.116;2022-12-18T05:05:34;99001.47;;;-7.74;81.66
15489;BME280;7846;48.830;9.116;2022-12-18T05:08:00;98993.91;;;-7.85;81.75
15489;BME280;7846;48.830;9.116;2022-12-18T05:10:25;98999.91;;;-7.91;81.93
15489;BME280;7846;48.830;9.116;2022-12-18T05:12:51;98999.03;;;-7.88;82.17
15489;BME280;7846;48.830;9.116;2022-12-18T05:15:33;98998.97;;;-7.81;82.49
15489;BME280;7846;48.830;9.116;2022-12-18T05:17:58;99010.09;;;-7.88;82.08
15489;BME280;7846;48.830;9.116;2022-12-18T05:20:25;99013.50;;;-7.86;82.77
15489;BME280;7846;48.830;9.116;2022-12-18T05:22:52;99017.72;;;-7.85;83.18
15489;BME280;7846;48.830;9.116;2022-12-18T05:25:18;99021.13;;;-7.84;83.07
15489;BME280;7846;48.830;9.116;2022-12-18T05:27:44;99023.72;;;-7.87;82.09
15489;BME280;7846;48.830;9.116;2022-12-18T05:30:10;99021.97;;;-7.84;81.83
15489;BME280;7846;48.830;9.116;2022-12-18T05:32:37;99027.91;;;-7.80;81.94
15489;BME280;7846;48.830;9.116;2022-12-18T05:35:04;99044.94;;;-7.81;82.40
15489;BME280;7846;48.830;9.116;2022-12-18T05:37:29;99040.75;;;-7.88;81.14
15489;BME280;7846;48.830;9.116;2022-12-18T05:39:55;99042.47;;;-7.91;81.60
15489;BME280;7846;48.830;9.116;2022-12-18T05:42:21;99032.28;;;-7.93;82.79
15489;BME280;7846;48.830;9.116;2022-12-18T05:44:47;99034.00;;;-7.93;81.91
15489;BME280;7846;48.830;9.116;2022-12-18T05:47:14;99037.41;;;-7.94;82.04
15489;BME280;7846;48.830;9.116;2022-12-18T05:49:39;99034.88;;;-7.97;81.93
15489;BME280;7846;48.830;9.116;2022-12-18T05:52:05;99023.75;;;-7.92;82.12
15489;BME280;7846;48.830;9.116;2022-12-18T05:54:32;99022.91;;;-7.94;81.81
15489;BME280;7846;48.830;9.116;2022-12-18T05:56:57;99017.78;;;-7.91;81.87
15489;BME280;7846;48.830;9.116;2022-12-18T05:59:23;99024.59;;;-7.91;82.34
15489;BME280;7846;48.830;9.116;2022-12-18T06:01:49;99030.53;;;-7.88;81.86
15489;BME280;7846;48.830;9.116;2022-12-18T06:04:16;99030.59;;;-7.92;81.21
15489;BME280;7846;48.830;9.116;2022-12-18T06:06:42;99037.38;;;-7.91;81.62
15489;BME280;7846;48.830;9.116;2022-12-18T06:09:08;99035.69;;;-7.92;81.13
15489;BME280;7846;48.830;9.116;2022-12-18T06:11:37;99039.91;;;-7.90;82.20
15489;BME280;7846;48.830;9.116;2022-12-18T06:14:03;99035.69;;;-7.94;82.54
15489;BME280;7846;48.830;9.116;2022-12-18T06:16:29;99039.13;;;-7.96;82.51
15489;BME280;7846;48.830;9.116;2022-12-18T06:19:00;99040.78;;;-7.92;81.72
15489;BME280;7846;48.830;9.116;2022-12-18T06:21:26;99035.75;;;-7.97;81.60
15489;BME280;7846;48.830;9.116;2022-12-18T06:23:51;99034.06;;;-8.02;81.48
15489;BME280;7846;48.830;9.116;2022-12-18T06:26:17;99036.59;;;-7.99;81.89
15489;BME280;7846;48.830;9.116;2022-12-18T06:28:43;99034.09;;;-8.04;81.75
15489;BME280;7846;48.830;9.116;2022-12-18T06:31:08;99045.97;;;-8.01;80.78
15489;BME280;7846;48.830;9.116;2022-12-18T06:33:38;99049.38;;;-8.01;80.58
15489;BME280;7846;48.830;9.116;2022-12-18T06:36:08;99049.38;;;-8.01;80.89
15489;BME280;7846;48.830;9.116;2022-12-18T06:38:36;99060.47;;;-8.04;80.69
15489;BME280;7846;48.830;9.116;2022-12-18T06:41:10;99068.09;;;-8.02;80.71
15489;BME280;7846;48.830;9.116;2022-12-18T06:43:36;99065.63;;;-8.11;80.53
15489;BME280;7846;48.830;9.116;2022-12-18T06:46:03;99051.19;;;-8.17;80.76
15489;BME280;7846;48.830;9.116;2022-12-18T06:48:30;99059.72;;;-8.15;80.26
15489;BME280;7846;48.830;9.116;2022-12-18T06:50:55;99054.59;;;-8.19;80.21
15489;BME280;7846;48.830;9.116;2022-12-18T06:53:22;99048.72;;;-8.23;80.68
15489;BME280;7846;48.830;9.116;2022-12-18T06:55:48;99045.28;;;-8.22;80.94
15489;BME280;7846;48.830;9.116;2022-12-18T06:58:14;99038.47;;;-8.21;81.03
15489;BME280;7846;48.830;9.116;2022-12-18T07:00:39;99047.81;;;-8.20;80.17
15489;BME280;7846;48.830;9.116;2022-12-18T07:03:07;99058.00;;;-8.17;81.15
15489;BME280;7846;48.830;9.116;2022-12-18T07:05:32;99067.38;;;-8.15;81.63
15489;BME280;7846;48.830;9.116;2022-12-18T07:07:58;99068.22;;;-8.14;81.74
15489;BME280;7846;48.830;9.116;2022-12-18T07:10:23;99077.56;;;-8.13;81.08
15489;BME280;7846;48.830;9.116;2022-12-18T07:12:49;99080.06;;;-8.09;81.40
15489;BME280;7846;48.830;9.116;2022-12-18T07:15:14;99075.81;;;-8.07;81.42
15489;BME280;7846;48.830;9.116;2022-12-18T07:17:40;99075.72;;;-7.97;81.90
15489;BME280;7846;48.830;9.116;2022-12-18T07:20:06;99078.28;;;-7.96;81.50
15489;BME280;7846;48.830;9.116;2022-12-18T07:22:31;99078.28;;;-7.93;81.46
15489;BME280;7846;48.830;9.116;2022-12-18T07:24:57;99083.28;;;-7.84;81.71
15489;BME280;7846;48.830;9.116;2022-12-18T07:27:23;99083.28;;;-7.82;81.85
15489;BME280;7846;48.830;9.116;2022-12-18T07:29:50;99091.66;;;-7.65;81.77
15489;BME280;7846;48.830;9.116;2022-12-18T07:32:15;99080.50;;;-7.58;82.36
15489;BME280;7846;48.830;9.116;2022-12-18T07:34:41;99082.97;;;-7.47;81.65
15489;BME280;7846;48.830;9.116;2022-12-18T07:37:06;99093.97;;;-7.37;81.77
15489;BME280;7846;48.830;9.116;2022-12-18T07:39:32;99096.44;;;-7.31;82.17
15489;BME280;7846;48.830;9.116;2022-12-18T07:41:58;99093.69;;;-7.11;82.27
15489;BME280;7846;48.830;9.116;2022-12-18T07:44:43;99093.66;;;-7.08;81.54
15489;BME280;7846;48.830;9.116;2022-12-18T07:47:09;99096.06;;;-6.97;82.17
15489;BME280;7846;48.830;9.116;2022-12-18T07:49:34;99085.72;;;-6.85;82.68
15489;BME280;7846;48.830;9.116;2022-12-18T07:51:59;99097.59;;;-6.78;82.13
15489;BME280;7846;48.830;9.116;2022-12-18T07:54:25;99092.28;;;-6.64;82.01
15489;BME280;7846;48.830;9.116;2022-12-18T07:56:51;99086.94;;;-6.49;81.43
15489;BME280;7846;48.830;9.116;2022-12-18T07:59:17;99092.03;;;-6.44;81.88
15489;BME280;7846;48.830;9.116;2022-12-18T08:01:44;99093.69;;;-6.40;81.98
15489;BME280;7846;48.830;9.116;2022-12-18T08:04:09;99091.06;;;-6.37;81.93
15489;BME280;7846;48.830;9.116;2022-12-18T08:06:35;99086.63;;;-6.24;82.37
15489;BME280;7846;48.830;9.116;2022-12-18T08:09:00;99094.00;;;-6.03;83.05
15489;BME280;7846;48.830;9.116;2022-12-18T08:11:27;99091.88;;;-5.78;82.27
15489;BME280;7846;48.830;9.116;2022-12-18T08:13:56;99093.34;;;-5.65;81.73
15489;BME280;7846;48.830;9.116;2022-12-18T08:16:23;99091.50;;;-5.56;81.82
15489;BME280;7846;48.830;9.116;2022-12-18T08:18:49;99091.97;;;-5.35;81.00
15489;BME280;7846;48.830;9.116;2022-12-18T08:21:28;99099.38;;;-5.18;80.66
15489;BME280;7846;48.830;9.116;2022-12-18T08:23:56;99097.56;;;-5.13;80.10
15489;BME280;7846;48.830;9.116;2022-12-18T08:26:23;99099.22;;;-5.10;80.43
15489;BME280;7846;48.830;9.116;2022-12-18T08:28:49;99104.91;;;-4.93;80.17
15489;BME280;7846;48.830;9.116;2022-12-18T08:31:17;99093.59;;;-4.84;80.07
15489;BME280;7846;48.830;9.116;2022-12-18T08:33:43;99102.03;;;-4.79;80.31
15489;BME280;7846;48.830;9.116;2022-12-18T08:36:09;99090.69;;;-4.67;80.04
15489;BME280;7846;48.830;9.116;2022-12-18T08:38:35;99089.72;;;-4.62;79.74
15489;BME280;7846;48.830;9.116;2022-12-18T08:41:04;99098.03;;;-4.50;79.29
15489;BME280;7846;48.830;9.116;2022-12-18T08:43:29;99093.59;;;-4.42;79.47
15489;BME280;7846;48.830;9.116;2022-12-18T08:46:13;99100.38;;;-4.40;79.60
15489;BME280;7846;48.830;9.116;2022-12-18T08:48:39;99102.66;;;-4.26;79.66
15489;BME280;7846;48.830;9.116;2022-12-18T08:51:07;99110.91;;;-4.11;79.41
15489;BME280;7846;48.830;9.116;2022-12-18T08:53:37;99101.50;;;-4.13;79.02
15489;BME280;7846;48.830;9.116;2022-12-18T08:56:04;99094.00;;;-3.84;79.51
15489;BME280;7846;48.830;9.116;2022-12-18T08:58:32;99093.69;;;-3.72;79.50
15489;BME280;7846;48.830;9.116;2022-12-18T09:01:08;99080.72;;;-3.66;78.90
15489;BME280;7846;48.830;9.116;2022-12-18T09:03:37;99080.25;;;-3.49;79.03
15489;BME280;7846;48.830;9.116;2022-12-18T09:06:05;99074.22;;;-3.47;78.32
15489;BME280;7846;48.830;9.116;2022-12-18T09:08:36;99077.81;;;-3.54;78.57
15489;BME280;7846;48.830;9.116;2022-12-18T09:11:02;99078.38;;;-3.43;78.87
15489;BME280;7846;48.830;9.116;2022-12-18T09:13:27;99083.38;;;-3.36;78.68
15489;BME280;7846;48.830;9.116;2022-12-18T09:15:54;99080.41;;;-3.21;78.61
15489;BME280;7846;48.830;9.116;2022-12-18T09:18:22;99067.88;;;-3.02;78.74
15489;BME280;7846;48.830;9.116;2022-12-18T09:20:48;99078.47;;;-2.82;77.51
15489;BME280;7846;48.830;9.116;2022-12-18T09:23:16;99065.47;;;-2.77;77.40
15489;BME280;7846;48.830;9.116;2022-12-18T09:25:42;99060.00;;;-2.96;77.66
15489;BME280;7846;48.830;9.116;2022-12-18T09:28:16;99050.88;;;-2.78;77.29
15489;BME280;7846;48.830;9.116;2022-12-18T09:30:49;99053.91;;;-2.64;76.87
15489;BME280;7846;48.830;9.116;2022-12-18T09:33:15;99065.50;;;-2.79;76.96
15489;BME280;7846;48.830;9.116;2022-12-18T09:35:43;99062.94;;;-2.79;76.39
15489;BME280;7846;48.830;9.116;2022-12-18T09:38:15;99063.81;;;-2.80;76.47
15489;BME280;7846;48.830;9.116;2022-12-18T09:40:44;99066.81;;;-2.64;76.75
15489;BME280;7846;48.830;9.116;2022-12-18T09:43:17;99063.53;;;-2.69;76.48
15489;BME280;7846;48.830;9.116;2022-12-18T09:45:49;99060.19;;;-2.43;76.24
15489;BME280;7846;48.830;9.116;2022-12-18T09:48:23;99064.75;;;-2.53;75.93
15489;BME280;7846;48.830;9.116;2022-12-18T09:50:57;99040.31;;;-2.39;75.88
15489;BME280;7846;48.830;9.116;2022-12-18T09:53:28;99033.00;;;-2.53;75.90
15489;BME280;7846;48.830;9.116;2022-12-18T09:55:57;99042.97;;;-2.42;75.75
15489;BME280;7846;48.830;9.116;2022-12-18T09:58:53;99048.16;;;-2.14;77.13
15489;BME280;7846;48.830;9.116;2022-12-18T10:01:22;99053.31;;;-1.88;76.20
15489;BME280;7846;48.830;9.116;2022-12-18T10:03:50;99057.28;;;-1.78;76.36
15489;BME280;7846;48.830;9.116;2022-12-18T10:06:23;99051.22;;;-1.77;75.75
15489;BME280;7846;48.830;9.116;2022-12-18T10:09:10;99062.00;;;-1.64;75.77
15489;BME280;7846;48.830;9.116;2022-12-18T10:11:56;99045.59;;;-1.36;74.97
15489;BME280;7846;48.830;9.116;2022-12-18T10:14:30;99057.59;;;-1.35;75.23
15489;BME280;7846;48.830;9.116;2022-12-18T10:20:05;99069.22;;;-0.99;74.74
15489;BME280;7846;48.830;9.116;2022-12-18T10:25:38;99067.59;;;-1.01;74.82
15489;BME280;7846;48.830;9.116;2022-12-18T10:28:14;99072.28;;;-0.64;74.83
15489;BME280;7846;48.830;9.116;2022-12-18T10:30:41;99052.44;;;-0.63;73.86
15489;BME280;7846;48.830;9.116;2022-12-18T10:33:13;99055.19;;;-0.44;73.21
15489;BME280;7846;48.830;9.116;2022-12-18T10:35:41;99058.38;;;-0.38;73.62
15489;BME280;7846;48.830;9.116;2022-12-18T10:41:02;99063.69;;;0.03;73.85
15489;BME280;7846;48.830;9.116;2022-12-18T10:43:37;99066.53;;;-0.25;73.51
15489;BME280;7846;48.830;9.116;2022-12-18T10:48:56;99056.59;;;0.08;72.96
15489;BME280;7846;48.830;9.116;2022-12-18T10:51:36;99058.19;;;0.11;72.68
15489;BME280;7846;48.830;9.116;2022-12-18T10:54:05;99055.03;;;0.46;71.89
15489;BME280;7846;48.830;9.116;2022-12-18T10:56:34;99057.75;;;0.43;71.32
15489;BME280;7846;48.830;9.116;2022-12-18T10:59:16;99056.38;;;0.55;71.71
15489;BME280;7846;48.830;9.116;2022-12-18T11:01:56;99060.59;;;0.58;71.71
15489;BME280;7846;48.830;9.116;2022-12-18T11:04:31;99062.69;;;0.90;70.91
15489;BME280;7846;48.830;9.116;2022-12-18T11:07:07;99063.31;;;0.95;70.88
15489;BME280;7846;48.830;9.116;2022-12-18T11:09:39;99035.53;;;1.18;70.29
15489;BME280;7846;48.830;9.116;2022-12-18T11:12:17;99052.25;;;1.31;69.53
15489;BME280;7846;48.830;9.116;2022-12-18T11:14:54;99042.22;;;1.24;69.32
15489;BME280;7846;48.830;9.116;2022-12-18T11:17:27;99035.50;;;1.57;68.72
15489;BME280;7846;48.830;9.116;2022-12-18T11:20:02;99030.78;;;1.47;67.90
15489;BME280;7846;48.830;9.116;2022-12-18T11:22:35;99024.63;;;1.49;67.89
15489;BME280;7846;48.830;9.116;2022-12-18T11:25:16;99031.22;;;1.92;66.92
15489;BME280;7846;48.830;9.116;2022-12-18T11:27:52;99021.22;;;1.85;65.85
15489;BME280;7846;48.830;9.116;2022-12-18T11:30:35;99025.00;;;1.78;66.36
15489;BME280;7846;48.830;9.116;2022-12-18T11:33:20;99024.72;;;1.84;66.98
15489;BME280;7846;48.830;9.116;2022-12-18T11:35:55;99034.22;;;2.02;66.55
15489;BME280;7846;48.830;9.116;2022-12-18T11:38:29;99024.19;;;2.31;66.05
15489;BME280;7846;48.830;9.116;2022-12-18T11:41:00;99022.25;;;2.17;65.66
15489;BME280;7846;48.830;9.116;2022-12-18T11:43:50;99023.06;;;2.00;66.08
15489;BME280;7846;48.830;9.116;2022-12-18T11:46:32;99022.19;;;2.18;65.39
15489;BME280;7846;48.830;9.116;2022-12-18T11:49:15;99020.44;;;2.19;64.90
15489;BME280;7846;48.830;9.116;2022-12-18T11:51:55;99023.34;;;1.58;65.87
15489;BME280;7846;48.830;9.116;2022-12-18T11:54:22;99014.06;;;2.07;64.84
15489;BME280;7846;48.830;9.116;2022-12-18T11:56:58;99020.59;;;2.33;64.97
15489;BME280;7846;48.830;9.116;2022-12-18T11:59:50;99012.41;;;2.58;62.76
15489;BME280;7846;48.830;9.116;2022-12-18T12:02:45;99010.25;;;2.66;62.91
15489;BME280;7846;48.830;9.116;2022-12-18T12:05:20;98994.66;;;2.66;61.96
15489;BME280;7846;48.830;9.116;2022-12-18T12:11:18;98995.16;;;2.57;61.87
15489;BME280;7846;48.830;9.116;2022-12-18T12:14:03;98987.75;;;2.50;62.66
15489;BME280;7846;48.830;9.116;2022-12-18T12:16:37;98982.56;;;2.83;62.27
15489;BME280;7846;48.830;9.116;2022-12-18T12:22:16;98985.31;;;2.80;61.14
15489;BME280;7846;48.830;9.116;2022-12-18T12:25:02;98987.38;;;3.06;61.43
15489;BME280;7846;48.830;9.116;2022-12-18T12:30:19;98987.91;;;3.45;59.04
15489;BME280;7846;48.830;9.116;2022-12-18T12:36:20;98993.22;;;3.27;58.64
15489;BME280;7846;48.830;9.116;2022-12-18T12:38:54;98989.69;;;3.44;59.20
15489;BME280;7846;48.830;9.116;2022-12-18T12:41:24;98985.22;;;3.94;58.23
15489;BME280;7846;48.830;9.116;2022-12-18T12:44:16;98980.44;;;3.86;57.36
15489;BME280;7846;48.830;9.116;2022-12-18T12:46:43;98987.97;;;4.06;57.38
15489;BME280;7846;48.830;9.116;2022-12-18T12:49:13;99002.94;;;4.33;55.98
15489;BME280;7846;48.830;9.116;2022-12-18T12:51:43;99010.25;;;3.96;56.98
15489;BME280;7846;48.830;9.116;2022-12-18T12:54:16;99006.31;;;4.35;56.79
15489;BME280;7846;48.830;9.116;2022-12-18T12:57:00;99007.16;;;4.94;55.49
15489;BME280;7846;48.830;9.116;2022-12-18T12:59:47;99005.47;;;5.22;54.57
15489;BME280;7846;48.830;9.116;2022-12-18T13:07:56;98999.72;;;5.85;51.55
15489;BME280;7846;48.830;9.116;2022-12-18T13:10:42;99007.91;;;6.35;49.54
15489;BME280;7846;48.830;9.116;2022-12-18T13:13:09;99014.78;;;6.36;50.50
15489;BME280;7846;48.830;9.116;2022-12-18T13:16:02;99011.31;;;6.75;49.69
15489;BME280;7846;48.830;9.116;2022-12-18T13:18:28;99005.94;;;6.89;49.69
15489;BME280;7846;48.830;9.116;2022-12-18T13:21:12;99003.97;;;7.06;49.06
15489;BME280;7846;48.830;9.116;2022-12-18T13:23:42;98995.56;;;7.00;47.73
15489;BME280;7846;48.830;9.116;2022-12-18T13:28:51;98999.03;;;6.50;49.31
15489;BME280;7846;48.830;9.116;2022-12-18T13:34:25;98992.84;;;6.11;49.64
15489;BME280;7846;48.830;9.116;2022-12-18T13:36:53;98989.69;;;5.38;50.47
15489;BME280;7846;48.830;9.116;2022-12-18T13:44:32;98973.84;;;6.22;49.60
15489;BME280;7846;48.830;9.116;2022-12-18T13:47:04;98970.31;;;5.42;50.03
15489;BME280;7846;48.830;9.116;2022-12-18T13:49:41;98974.44;;;5.58;49.85
15489;BME280;7846;48.830;9.116;2022-12-18T13:52:34;98974.06;;;4.95;52.75
15489;BME280;7846;48.830;9.116;2022-12-18T13:55:05;98972.44;;;4.49;53.11
15489;BME280;7846;48.830;9.116;2022-12-18T13:57:34;98968.38;;;4.88;52.87
15489;BME280;7846;48.830;9.116;2022-12-18T14:00:24;98981.75;;;4.09;53.14
15489;BME280;7846;48.830;9.116;2022-12-18T14:02:51;98979.25;;;4.22;53.12
15489;BME280;7846;48.830;9.116;2022-12-18T14:05:35;98977.94;;;3.69;54.74
15489;BME280;7846;48.830;9.116;2022-12-18T14:08:04;98978.69;;;3.86;54.39
15489;BME280;7846;48.830;9.116;2022-12-18T14:10:30;98979.03;;;3.64;54.91
15489;BME280;7846;48.830;9.116;2022-12-18T14:13:06;98981.78;;;4.23;54.24
15489;BME280;7846;48.830;9.116;2022-12-18T14:15:35;98979.13;;;3.79;54.40
15489;BME280;7846;48.830;9.116;2022-12-18T14:18:21;98977.06;;;3.84;55.17
15489;BME280;7846;48.830;9.116;2022-12-18T14:20:49;98983.28;;;3.18;56.35
15489;BME280;7846;48.830;9.116;2022-12-18T14:23:28;98989.81;;;2.43;58.07
15489;BME280;7846;48.830;9.116;2022-12-18T14:25:54;98986.66;;;2.54;58.85
15489;BME280;7846;48.830;9.116;2022-12-18T14:28:21;98976.31;;;3.03;57.89
15489;BME280;7846;48.830;9.116;2022-12-18T14:30:49;98982.59;;;2.99;57.68